createdAt,value
2023-02-16T00:00:48.556Z,98029.53
2023-02-16T00:01:50.488Z,98030.19
2023-02-16T00:02:52.420Z,98021.44
2023-02-16T00:03:55.279Z,98022.25
2023-02-16T00:04:57.232Z,98025.88
2023-02-16T00:05:59.169Z,98021.78
2023-02-16T00:07:01.098Z,98020.84
2023-02-16T00:08:02.889Z,98024.34
2023-02-16T00:09:04.779Z,98026.22
2023-02-16T00:10:06.845Z,98018.38
2023-02-16T00:11:37.610Z,98029.78
2023-02-16T00:12:57.906Z,98020.38
2023-02-16T00:13:59.829Z,98019.31
2023-02-16T00:15:01.760Z,98018.28
2023-02-16T00:16:03.614Z,98020.63
2023-02-16T00:17:05.809Z,98022.16
2023-02-16T00:18:16.188Z,98018.78
2023-02-16T00:19:22.764Z,98020.13
2023-02-16T00:20:24.725Z,98022.94
2023-02-16T00:21:26.568Z,98018.00
2023-02-16T00:22:28.449Z,98019.75
2023-02-16T00:23:30.346Z,98019.75
2023-02-16T00:24:32.622Z,98009.25
2023-02-16T00:25:34.582Z,98013.38
2023-02-16T00:26:36.557Z,98018.19
2023-02-16T00:27:38.518Z,98020.03
2023-02-16T00:28:40.432Z,98016.53
2023-02-16T00:29:45.375Z,98006.84
2023-02-16T00:30:47.962Z,98005.72
2023-02-16T00:31:50.210Z,98010.63
2023-02-16T00:32:52.094Z,98012.50
2023-02-16T00:33:54.293Z,98006.31
2023-02-16T00:34:56.541Z,98009.59
2023-02-16T00:35:58.380Z,98010.63
2023-02-16T00:37:04.969Z,98006.56
2023-02-16T00:38:06.855Z,98011.44
2023-02-16T00:39:08.631Z,98016.59
2023-02-16T00:40:11.377Z,98008.19
2023-02-16T00:41:39.603Z,98009.31
2023-02-16T00:42:42.641Z,98008.25
2023-02-16T00:43:44.529Z,98015.00
2023-02-16T00:44:51.149Z,98001.25
2023-02-16T00:45:53.301Z,98011.28
2023-02-16T00:46:55.621Z,98011.38
2023-02-16T00:47:57.498Z,98010.53
2023-02-16T00:48:59.460Z,98001.97
2023-02-16T00:50:01.537Z,97999.41
2023-02-16T00:51:16.843Z,98005.22
2023-02-16T00:52:22.423Z,98004.34
2023-02-16T00:53:24.303Z,98002.69
2023-02-16T00:54:26.118Z,98004.25
2023-02-16T00:55:29.625Z,98003.00
2023-02-16T00:56:33.357Z,98005.34
2023-02-16T00:57:37.960Z,98004.63
2023-02-16T00:58:39.979Z,98002.41
2023-02-16T00:59:41.880Z,98006.72
2023-02-16T01:00:46.711Z,98002.41
2023-02-16T01:01:49.404Z,97996.66
2023-02-16T01:02:52.336Z,97995.22
2023-02-16T01:03:54.273Z,97998.84
2023-02-16T01:04:56.233Z,97995.56
2023-02-16T01:06:17.095Z,97993.81
2023-02-16T01:07:37.652Z,97989.50
2023-02-16T01:08:58.371Z,97993.38
2023-02-16T01:10:18.512Z,97984.69
2023-02-16T01:11:20.510Z,97984.69
2023-02-16T01:12:23.109Z,97985.41
2023-02-16T01:13:26.827Z,97985.72
2023-02-16T01:14:30.909Z,97982.31
2023-02-16T01:15:32.822Z,97983.03
2023-02-16T01:16:38.866Z,97980.88
2023-02-16T01:17:41.142Z,97984.97
2023-02-16T01:18:42.906Z,97981.59
2023-02-16T01:19:44.780Z,97980.75
2023-02-16T01:20:47.274Z,97977.19
2023-02-16T01:21:49.182Z,97972.66
2023-02-16T01:22:51.238Z,97977.34
2023-02-16T01:23:53.054Z,97966.03
2023-02-16T01:24:54.840Z,97971.06
2023-02-16T01:25:57.087Z,97965.00
2023-02-16T01:26:59.101Z,97973.84
2023-02-16T01:28:00.931Z,97971.19
2023-02-16T01:29:02.802Z,97977.28
2023-02-16T01:30:08.776Z,97971.19
2023-02-16T01:31:11.471Z,97971.00
2023-02-16T01:32:13.452Z,97973.38
2023-02-16T01:33:15.375Z,97966.38
2023-02-16T01:34:17.353Z,97973.13
2023-02-16T01:35:20.331Z,97971.28
2023-02-16T01:36:28.399Z,97966.03
2023-02-16T01:37:30.314Z,97964.19
2023-02-16T01:38:32.194Z,97967.47
2023-02-16T01:39:34.142Z,97960.69
2023-02-16T01:40:35.937Z,97972.78
2023-02-16T01:41:56.787Z,97973.03
2023-02-16T01:43:01.711Z,97969.84
2023-02-16T01:44:05.071Z,97964.00
2023-02-16T01:45:17.455Z,97970.91
2023-02-16T01:46:26.185Z,97973.13
2023-02-16T01:47:37.400Z,97968.72
2023-02-16T01:48:39.323Z,97971.28
2023-02-16T01:49:41.157Z,97973.75
2023-02-16T01:50:57.969Z,97964.28
2023-02-16T01:52:11.174Z,97968.50
2023-02-16T01:53:19.152Z,97967.47
2023-02-16T01:54:27.846Z,97966.50
2023-02-16T01:55:42.072Z,97964.66
2023-02-16T01:56:46.545Z,97965.50
2023-02-16T01:58:07.161Z,97967.22
2023-02-16T01:59:24.721Z,97962.22
2023-02-16T02:00:29.599Z,97960.47
2023-02-16T02:01:40.218Z,97959.66
2023-02-16T02:02:45.667Z,97961.50
2023-02-16T02:04:06.394Z,97959.16
2023-02-16T02:05:37.357Z,97953.56
2023-02-16T02:06:39.291Z,97949.84
2023-02-16T02:07:43.750Z,97951.47
2023-02-16T02:08:49.602Z,97954.25
2023-02-16T02:10:03.800Z,97946.56
2023-02-16T02:11:05.886Z,97939.88
2023-02-16T02:12:26.470Z,97940.59
2023-02-16T02:13:31.171Z,97940.00
2023-02-16T02:14:35.958Z,97942.56
2023-02-16T02:15:37.786Z,97933.22
2023-02-16T02:16:39.751Z,97944.53
2023-02-16T02:17:41.600Z,97936.22
2023-02-16T02:18:45.232Z,97934.38
2023-02-16T02:20:00.069Z,97944.53
2023-02-16T02:21:32.554Z,97937.28
2023-02-16T02:23:07.505Z,97937.28
2023-02-16T02:24:27.818Z,97942.06
2023-02-16T02:25:38.701Z,97949.88
2023-02-16T02:26:46.713Z,97936.22
2023-02-16T02:27:54.845Z,97940.16
2023-02-16T02:28:59.514Z,97934.09
2023-02-16T02:30:17.163Z,97934.09
2023-02-16T02:31:33.061Z,97931.31
2023-02-16T02:32:46.912Z,97932.00
2023-02-16T02:34:01.020Z,97942.28
2023-02-16T02:35:09.246Z,97937.28
2023-02-16T02:36:11.186Z,97938.91
2023-02-16T02:37:13.008Z,97929.34
2023-02-16T02:38:30.506Z,97936.22
2023-02-16T02:39:39.102Z,97942.16
2023-02-16T02:40:46.706Z,97946.25
2023-02-16T02:42:06.394Z,97930.75
2023-02-16T02:43:14.666Z,97933.44
2023-02-16T02:44:19.062Z,97936.94
2023-02-16T02:45:27.517Z,97933.66
2023-02-16T02:46:29.309Z,97930.59
2023-02-16T02:47:44.715Z,97940.28
2023-02-16T02:48:46.714Z,97936.88
2023-02-16T02:49:53.068Z,97939.78
2023-02-16T02:51:16.816Z,97938.00
2023-02-16T02:52:18.963Z,97939.06
2023-02-16T02:53:21.046Z,97932.19
2023-02-16T02:54:47.900Z,97939.16
2023-02-16T02:56:09.643Z,97937.22
2023-02-16T02:57:56.000Z,97939.44
2023-02-16T02:59:19.872Z,97945.28
2023-02-16T03:00:44.403Z,97945.41
2023-02-16T03:01:49.289Z,97947.03
2023-02-16T03:02:53.945Z,97947.84
2023-02-16T03:03:57.356Z,97942.72
2023-02-16T03:05:00.989Z,97946.13
2023-02-16T03:06:10.434Z,97949.41
2023-02-16T03:07:12.932Z,97944.38
2023-02-16T03:08:17.865Z,97940.16
2023-02-16T03:09:21.094Z,97939.34
2023-02-16T03:10:51.869Z,97939.66
2023-02-16T03:12:13.562Z,97939.06
2023-02-16T03:13:18.386Z,97937.31
2023-02-16T03:14:27.518Z,97936.72
2023-02-16T03:15:31.080Z,97936.44
2023-02-16T03:16:40.958Z,97941.44
2023-02-16T03:18:01.668Z,97939.50
2023-02-16T03:19:23.472Z,97936.72
2023-02-16T03:20:44.360Z,97944.81
2023-02-16T03:22:05.075Z,97939.78
2023-02-16T03:23:26.634Z,97936.16
2023-02-16T03:24:48.939Z,97933.03
2023-02-16T03:26:10.603Z,97937.31
2023-02-16T03:27:32.125Z,97939.16
2023-02-16T03:28:53.791Z,97936.59
2023-02-16T03:29:56.838Z,97940.00
2023-02-16T03:30:59.918Z,97937.63
2023-02-16T03:32:02.366Z,97925.75
2023-02-16T03:33:04.363Z,97937.63
2023-02-16T03:34:07.295Z,97935.78
2023-02-16T03:35:09.665Z,97936.84
2023-02-16T03:36:12.198Z,97939.41
2023-02-16T03:37:14.283Z,97936.84
2023-02-16T03:38:16.226Z,97932.50
2023-02-16T03:39:19.105Z,97933.13
2023-02-16T03:40:30.289Z,97930.56
2023-02-16T03:41:33.364Z,97922.63
2023-02-16T03:42:35.248Z,97922.63
2023-02-16T03:43:37.166Z,97926.75
2023-02-16T03:44:39.079Z,97930.22
2023-02-16T03:45:42.250Z,97932.88
2023-02-16T03:46:44.261Z,97928.59
2023-02-16T03:47:46.112Z,97928.81
2023-02-16T03:48:48.047Z,97928.81
2023-02-16T03:49:49.906Z,97930.31
2023-02-16T03:50:51.829Z,97925.81
2023-02-16T03:51:53.672Z,97931.66
2023-02-16T03:53:07.314Z,97927.31
2023-02-16T03:54:09.406Z,97928.97
2023-02-16T03:55:11.336Z,97931.44
2023-02-16T03:56:13.332Z,97931.66
2023-02-16T03:57:15.201Z,97938.84
2023-02-16T03:58:19.777Z,97935.44
2023-02-16T03:59:21.699Z,97937.00
2023-02-16T04:00:23.527Z,97940.28
2023-02-16T04:01:25.529Z,97933.50
2023-02-16T04:02:28.674Z,97930.03
2023-02-16T04:03:30.602Z,97933.28
2023-02-16T04:04:32.516Z,97936.44
2023-02-16T04:05:34.415Z,97933.16
2023-02-16T04:06:36.379Z,97933.88
2023-02-16T04:07:38.173Z,97932.25
2023-02-16T04:08:40.335Z,97930.59
2023-02-16T04:09:42.223Z,97927.31
2023-02-16T04:10:44.504Z,97938.63
2023-02-16T04:12:04.675Z,97938.72
2023-02-16T04:13:06.563Z,97937.00
2023-02-16T04:14:08.564Z,97940.59
2023-02-16T04:15:12.687Z,97939.78
2023-02-16T04:16:14.593Z,97939.06
2023-02-16T04:17:16.604Z,97939.88
2023-02-16T04:18:18.509Z,97939.16
2023-02-16T04:19:20.422Z,97944.41
2023-02-16T04:20:23.644Z,97941.25
2023-02-16T04:21:25.517Z,97942.88
2023-02-16T04:22:27.538Z,97944.72
2023-02-16T04:23:29.376Z,97938.78
2023-02-16T04:24:31.391Z,97941.69
2023-02-16T04:25:33.492Z,97935.72
2023-02-16T04:26:35.323Z,97934.00
2023-02-16T04:27:37.800Z,97934.00
2023-02-16T04:28:39.644Z,97932.94
2023-02-16T04:29:41.568Z,97928.63
2023-02-16T04:30:43.614Z,97936.13
2023-02-16T04:31:45.614Z,97930.75
2023-02-16T04:32:47.742Z,97926.56
2023-02-16T04:33:49.600Z,97929.13
2023-02-16T04:34:51.514Z,97931.53
2023-02-16T04:35:53.383Z,97930.91
2023-02-16T04:36:55.262Z,97927.53
2023-02-16T04:37:57.266Z,97929.06
2023-02-16T04:38:59.151Z,97934.19
2023-02-16T04:40:01.113Z,97923.13
2023-02-16T04:41:03.235Z,97931.63
2023-02-16T04:42:05.382Z,97930.59
2023-02-16T04:43:07.356Z,97925.34
2023-02-16T04:44:09.176Z,97928.63
2023-02-16T04:45:11.551Z,97928.84
2023-02-16T04:46:13.601Z,97922.19
2023-02-16T04:47:15.533Z,97927.44
2023-02-16T04:48:17.470Z,97923.31
2023-02-16T04:49:19.389Z,97925.41
2023-02-16T04:50:21.265Z,97923.38
2023-02-16T04:51:23.112Z,97922.66
2023-02-16T04:52:25.054Z,97923.78
2023-02-16T04:53:26.942Z,97920.63
2023-02-16T04:54:28.796Z,97922.16
2023-02-16T04:55:31.303Z,97929.72
2023-02-16T04:56:33.128Z,97918.56
2023-02-16T04:57:35.120Z,97928.50
2023-02-16T04:58:37.075Z,97933.44
2023-02-16T04:59:39.065Z,97923.75
2023-02-16T05:00:41.044Z,97927.63
2023-02-16T05:01:43.631Z,97927.63
2023-02-16T05:02:45.496Z,97936.97
2023-02-16T05:03:47.586Z,97933.56
2023-02-16T05:04:49.544Z,97936.47
2023-02-16T05:05:51.516Z,97937.50
2023-02-16T05:06:53.367Z,97930.63
2023-02-16T05:07:55.276Z,97933.91
2023-02-16T05:08:57.221Z,97939.75
2023-02-16T05:09:59.089Z,97927.63
2023-02-16T05:11:19.302Z,97931.72
2023-02-16T05:12:56.192Z,97929.16
2023-02-16T05:14:17.295Z,97934.63
2023-02-16T05:15:19.170Z,97930.63
2023-02-16T05:16:22.311Z,97936.47
2023-02-16T05:17:25.778Z,97938.13
2023-02-16T05:18:27.617Z,97938.31
2023-02-16T05:19:29.507Z,97930.03
2023-02-16T05:20:49.561Z,97933.44
2023-02-16T05:21:51.458Z,97932.38
2023-02-16T05:22:53.396Z,97938.31
2023-02-16T05:23:55.248Z,97936.47
2023-02-16T05:24:57.149Z,97934.63
2023-02-16T05:25:59.062Z,97932.75
2023-02-16T05:27:01.470Z,97933.56
2023-02-16T05:28:03.440Z,97940.25
2023-02-16T05:29:05.868Z,97939.41
2023-02-16T05:30:07.928Z,97943.72
2023-02-16T05:31:09.986Z,97931.72
2023-02-16T05:32:12.232Z,97936.84
2023-02-16T05:33:14.285Z,97938.50
2023-02-16T05:34:16.232Z,97942.59
2023-02-16T05:35:18.129Z,97941.25
2023-02-16T05:36:20.427Z,97942.22
2023-02-16T05:37:22.300Z,97948.16
2023-02-16T05:38:24.210Z,97946.00
2023-02-16T05:39:26.034Z,97941.41
2023-02-16T05:40:27.888Z,97946.56
2023-02-16T05:41:29.989Z,97944.00
2023-02-16T05:42:31.865Z,97949.13
2023-02-16T05:43:33.791Z,97950.28
2023-02-16T05:44:36.754Z,97944.91
2023-02-16T05:45:39.059Z,97942.97
2023-02-16T05:46:41.687Z,97946.16
2023-02-16T05:47:45.551Z,97950.03
2023-02-16T05:48:49.300Z,97948.19
2023-02-16T05:49:51.122Z,97941.13
2023-02-16T05:50:56.171Z,97946.81
2023-02-16T05:51:58.073Z,97945.09
2023-02-16T05:52:59.988Z,97944.78
2023-02-16T05:54:02.024Z,97945.47
2023-02-16T05:55:04.391Z,97952.13
2023-02-16T05:56:07.432Z,97947.00
2023-02-16T05:57:09.961Z,97953.50
2023-02-16T05:58:11.889Z,97951.66
2023-02-16T05:59:14.130Z,97952.06
2023-02-16T06:00:16.310Z,97948.81
2023-02-16T06:01:18.337Z,97957.41
2023-02-16T06:02:20.248Z,97953.00
2023-02-16T06:03:22.348Z,97965.31
2023-02-16T06:04:24.253Z,97959.25
2023-02-16T06:05:26.659Z,97957.41
2023-02-16T06:06:28.559Z,97955.97
2023-02-16T06:07:30.454Z,97956.19
2023-02-16T06:08:32.881Z,97955.59
2023-02-16T06:09:34.887Z,97960.28
2023-02-16T06:10:36.656Z,97959.56
2023-02-16T06:11:38.784Z,97961.00
2023-02-16T06:12:40.688Z,97959.47
2023-02-16T06:13:42.612Z,97958.56
2023-02-16T06:14:44.490Z,97962.75
2023-02-16T06:15:47.270Z,97963.38
2023-02-16T06:16:49.778Z,97976.72
2023-02-16T06:17:51.664Z,97966.13
2023-02-16T06:18:54.283Z,97963.34
2023-02-16T06:19:56.184Z,97964.91
2023-02-16T06:20:58.185Z,97973.50
2023-02-16T06:22:00.135Z,97962.34
2023-02-16T06:23:01.978Z,97965.72
2023-02-16T06:24:03.895Z,97962.53
2023-02-16T06:25:05.805Z,97960.69
2023-02-16T06:26:07.699Z,97966.53
2023-02-16T06:27:09.516Z,97970.50
2023-02-16T06:28:11.798Z,97975.63
2023-02-16T06:29:13.690Z,97968.88
2023-02-16T06:30:15.682Z,97973.78
2023-02-16T06:31:17.901Z,97966.72
2023-02-16T06:32:20.215Z,97969.03
2023-02-16T06:33:22.166Z,97970.78
2023-02-16T06:34:24.461Z,97977.69
2023-02-16T06:35:26.356Z,97977.78
2023-02-16T06:36:28.342Z,97976.88
2023-02-16T06:37:30.577Z,97971.50
2023-02-16T06:38:32.583Z,97975.63
2023-02-16T06:39:34.484Z,97981.34
2023-02-16T06:40:36.382Z,97976.91
2023-02-16T06:41:40.706Z,97980.19
2023-02-16T06:42:42.822Z,97980.91
2023-02-16T06:43:44.686Z,97980.81
2023-02-16T06:44:46.614Z,97980.72
2023-02-16T06:45:49.004Z,97982.31
2023-02-16T06:46:51.011Z,97979.75
2023-02-16T06:47:52.877Z,97982.88
2023-02-16T06:48:54.768Z,97982.03
2023-02-16T06:49:56.682Z,97986.16
2023-02-16T06:50:58.609Z,97979.91
2023-02-16T06:52:00.528Z,97985.94
2023-02-16T06:53:02.352Z,97991.88
2023-02-16T06:54:04.296Z,97994.44
2023-02-16T06:55:06.960Z,97996.91
2023-02-16T06:56:08.861Z,97994.44
2023-02-16T06:57:10.738Z,97991.69
2023-02-16T06:58:12.733Z,97989.00
2023-02-16T06:59:14.781Z,97995.75
2023-02-16T07:00:16.986Z,97989.72
2023-02-16T07:01:23.526Z,97991.56
2023-02-16T07:02:25.643Z,97993.44
2023-02-16T07:03:27.516Z,97992.38
2023-02-16T07:04:29.493Z,97986.22
2023-02-16T07:05:31.357Z,97990.44
2023-02-16T07:06:33.163Z,97989.59
2023-02-16T07:07:35.051Z,97987.03
2023-02-16T07:08:36.976Z,97996.38
2023-02-16T07:09:39.331Z,97992.06
2023-02-16T07:10:50.105Z,97991.25
2023-02-16T07:11:52.438Z,97993.00
2023-02-16T07:12:54.360Z,97993.81
2023-02-16T07:13:56.244Z,97997.09
2023-02-16T07:14:58.190Z,97989.28
2023-02-16T07:16:00.041Z,97990.81
2023-02-16T07:17:04.603Z,97995.00
2023-02-16T07:18:07.019Z,97989.88
2023-02-16T07:19:08.992Z,97986.59
2023-02-16T07:20:12.941Z,97994.41
2023-02-16T07:21:15.401Z,97992.88
2023-02-16T07:22:18.152Z,97990.31
2023-02-16T07:23:20.077Z,97989.28
2023-02-16T07:24:21.946Z,98001.19
2023-02-16T07:25:25.907Z,97991.97
2023-02-16T07:26:27.822Z,97999.56
2023-02-16T07:27:29.687Z,97997.00
2023-02-16T07:28:31.686Z,97996.16
2023-02-16T07:29:33.515Z,98006.09
2023-02-16T07:30:36.237Z,97995.75
2023-02-16T07:31:38.443Z,98007.81
2023-02-16T07:32:40.456Z,97997.69
2023-02-16T07:33:42.889Z,97999.31
2023-02-16T07:34:46.024Z,98005.88
2023-02-16T07:35:47.891Z,98000.63
2023-02-16T07:36:49.939Z,98004.16
2023-02-16T07:37:51.825Z,98007.53
2023-02-16T07:38:55.302Z,98008.34
2023-02-16T07:39:57.222Z,98003.22
2023-02-16T07:40:59.151Z,98002.81
2023-02-16T07:42:01.175Z,98010.81
2023-02-16T07:43:04.133Z,98007.88
2023-02-16T07:44:06.717Z,98012.09
2023-02-16T07:45:08.900Z,98006.72
2023-02-16T07:46:11.259Z,98006.41
2023-02-16T07:47:14.722Z,98008.56
2023-02-16T07:48:16.643Z,98010.19
2023-02-16T07:49:18.534Z,97999.72
2023-02-16T07:50:20.495Z,98002.16
2023-02-16T07:51:23.500Z,97996.81
2023-02-16T07:52:31.451Z,98003.00
2023-02-16T07:53:33.593Z,97998.06
2023-02-16T07:54:35.631Z,97998.59
2023-02-16T07:55:44.334Z,97991.38
2023-02-16T07:56:47.714Z,97993.50
2023-02-16T07:57:53.133Z,97987.22
2023-02-16T07:58:55.756Z,97991.19
2023-02-16T07:59:58.051Z,98002.06
2023-02-16T08:01:13.090Z,97994.97
2023-02-16T08:02:17.596Z,97993.81
2023-02-16T08:03:19.609Z,97992.16
2023-02-16T08:04:21.524Z,97995.78
2023-02-16T08:05:23.578Z,97992.63
2023-02-16T08:06:25.463Z,97996.31
2023-02-16T08:07:27.466Z,97985.84
2023-02-16T08:08:29.420Z,97998.44
2023-02-16T08:09:31.367Z,97990.31
2023-02-16T08:10:33.222Z,97993.13
2023-02-16T08:11:35.120Z,97996.91
2023-02-16T08:12:37.305Z,97998.22
2023-02-16T08:13:39.707Z,97991.81
2023-02-16T08:14:41.664Z,98002.56
2023-02-16T08:15:45.077Z,97990.09
2023-02-16T08:16:46.998Z,97998.75
2023-02-16T08:17:48.881Z,97992.03
2023-02-16T08:18:51.326Z,97988.84
2023-02-16T08:19:53.174Z,97995.78
2023-02-16T08:21:04.214Z,98000.31
2023-02-16T08:22:07.658Z,97993.78
2023-02-16T08:23:10.619Z,97997.06
2023-02-16T08:24:13.456Z,98005.38
2023-02-16T08:25:16.311Z,97997.19
2023-02-16T08:26:18.632Z,98001.06
2023-02-16T08:27:21.661Z,98000.56
2023-02-16T08:28:29.018Z,98001.97
2023-02-16T08:29:31.681Z,97998.72
2023-02-16T08:30:35.067Z,97998.00
2023-02-16T08:31:38.675Z,97998.47
2023-02-16T08:32:44.324Z,98000.44
2023-02-16T08:33:47.195Z,97992.72
2023-02-16T08:34:49.110Z,98001.25
2023-02-16T08:35:50.970Z,98001.94
2023-02-16T08:36:56.681Z,98000.44
2023-02-16T08:38:02.637Z,97997.41
2023-02-16T08:39:06.049Z,97996.06
2023-02-16T08:40:09.089Z,97994.91
2023-02-16T08:41:11.044Z,98005.44
2023-02-16T08:42:13.698Z,98002.59
2023-02-16T08:43:15.798Z,97996.97
2023-02-16T08:44:18.593Z,98003.78
2023-02-16T08:45:20.559Z,98002.81
2023-02-16T08:46:23.230Z,97999.88
2023-02-16T08:47:25.116Z,98008.06
2023-02-16T08:48:29.078Z,98001.63
2023-02-16T08:49:31.056Z,98008.97
2023-02-16T08:50:33.000Z,97997.25
2023-02-16T08:51:36.238Z,98007.28
2023-02-16T08:52:38.784Z,97997.44
2023-02-16T08:53:40.995Z,97998.69
2023-02-16T08:54:42.995Z,98004.28
2023-02-16T08:55:51.481Z,97997.03
2023-02-16T08:56:53.537Z,98002.47
2023-02-16T08:57:55.774Z,98008.06
2023-02-16T08:58:57.896Z,98011.91
2023-02-16T09:00:18.405Z,98003.94
2023-02-16T09:01:20.793Z,98005.31
2023-02-16T09:02:23.071Z,98000.97
2023-02-16T09:03:25.390Z,98006.69
2023-02-16T09:04:29.261Z,98005.50
2023-02-16T09:05:31.447Z,98008.38
2023-02-16T09:06:36.785Z,97998.38
2023-02-16T09:07:38.686Z,98005.47
2023-02-16T09:08:41.263Z,98005.09
2023-02-16T09:09:45.047Z,98004.16
2023-02-16T09:10:46.920Z,98004.16
2023-02-16T09:11:49.420Z,97998.75
2023-02-16T09:12:51.340Z,98000.94
2023-02-16T09:13:53.703Z,98007.03
2023-02-16T09:14:56.082Z,98009.25
2023-02-16T09:16:08.376Z,98010.34
2023-02-16T09:17:10.240Z,98004.78
2023-02-16T09:18:15.167Z,98012.41
2023-02-16T09:19:21.117Z,98015.69
2023-02-16T09:20:24.113Z,98018.69
2023-02-16T09:21:26.152Z,98016.69
2023-02-16T09:22:28.572Z,98016.97
2023-02-16T09:23:31.245Z,98020.13
2023-02-16T09:24:33.111Z,98016.56
2023-02-16T09:25:36.366Z,98019.59
2023-02-16T09:26:39.472Z,98025.84
2023-02-16T09:27:41.854Z,98023.31
2023-02-16T09:28:44.242Z,98010.13
2023-02-16T09:29:46.194Z,98015.47
2023-02-16T09:30:49.061Z,98012.59
2023-02-16T09:31:50.925Z,98011.38
2023-02-16T09:32:52.817Z,98008.25
2023-02-16T09:33:56.467Z,98012.06
2023-02-16T09:34:58.431Z,98013.31
2023-02-16T09:36:00.450Z,98021.47
2023-02-16T09:37:02.346Z,98016.16
2023-02-16T09:38:04.152Z,98011.28
2023-02-16T09:39:06.106Z,98012.38
2023-02-16T09:40:08.464Z,98012.22
2023-02-16T09:41:22.066Z,98012.63
2023-02-16T09:42:48.052Z,98011.56
2023-02-16T09:43:53.343Z,98007.88
2023-02-16T09:45:09.982Z,98017.25
2023-02-16T09:46:13.759Z,98011.00
2023-02-16T09:47:21.398Z,98010.84
2023-02-16T09:48:26.376Z,98005.25
2023-02-16T09:49:32.714Z,98010.69
2023-02-16T09:52:00.927Z,98002.44
2023-02-16T09:53:12.028Z,98005.69
2023-02-16T09:54:32.338Z,98003.34
2023-02-16T09:55:49.539Z,98000.44
2023-02-16T09:56:59.919Z,98002.16
2023-02-16T09:58:01.776Z,97994.19
2023-02-16T09:59:03.641Z,98000.19
2023-02-16T10:00:14.806Z,97992.63
2023-02-16T10:01:23.994Z,97989.97
2023-02-16T10:02:25.838Z,97992.66
2023-02-16T10:03:37.628Z,97991.13
2023-02-16T10:04:58.190Z,97991.19
2023-02-16T10:06:18.832Z,97978.97
2023-02-16T10:07:20.876Z,97983.84
2023-02-16T10:08:31.597Z,97972.22
2023-02-16T10:09:33.878Z,97982.69
2023-02-16T10:10:41.243Z,97977.03
2023-02-16T10:11:51.891Z,97978.22
2023-02-16T10:12:59.070Z,97967.91
2023-02-16T10:14:05.684Z,97973.16
2023-02-16T10:15:09.755Z,97971.88
2023-02-16T10:16:15.986Z,97975.09
2023-02-16T10:17:44.293Z,97968.63
2023-02-16T10:18:49.693Z,97976.94
2023-02-16T10:19:51.551Z,97970.28
2023-02-16T10:20:56.795Z,97965.00
2023-02-16T10:22:00.561Z,97968.63
2023-02-16T10:23:02.668Z,97963.34
2023-02-16T10:24:06.533Z,97961.06
2023-02-16T10:25:33.032Z,97959.50
2023-02-16T10:26:47.622Z,97970.59
2023-02-16T10:27:52.759Z,97957.59
2023-02-16T10:29:00.556Z,97957.94
2023-02-16T10:30:02.558Z,97959.91
2023-02-16T10:31:11.997Z,97953.41
2023-02-16T10:32:25.176Z,97952.97
2023-02-16T10:33:32.685Z,97942.41
2023-02-16T10:34:40.795Z,97939.81
2023-02-16T10:35:55.903Z,97939.69
2023-02-16T10:37:15.943Z,97942.28
2023-02-16T10:38:27.995Z,97932.56
2023-02-16T10:39:32.908Z,97938.63
2023-02-16T10:40:47.439Z,97942.03
2023-02-16T10:42:10.187Z,97940.75
2023-02-16T10:43:25.574Z,97940.44
2023-02-16T10:44:37.483Z,97932.00
2023-02-16T10:45:51.899Z,97928.56
2023-02-16T10:47:00.968Z,97932.34
2023-02-16T10:48:02.927Z,97926.31
2023-02-16T10:49:04.961Z,97927.78
2023-02-16T10:50:07.501Z,97936.38
2023-02-16T10:51:11.471Z,97937.72
2023-02-16T10:52:13.303Z,97938.66
2023-02-16T10:53:15.291Z,97938.00
2023-02-16T10:54:20.932Z,97928.41
2023-02-16T10:55:22.840Z,97924.94
2023-02-16T10:56:33.948Z,97927.06
2023-02-16T10:57:36.110Z,97916.16
2023-02-16T10:58:40.267Z,97920.56
2023-02-16T10:59:44.165Z,97917.47
2023-02-16T11:00:56.663Z,97924.25
2023-02-16T11:01:59.771Z,97920.97
2023-02-16T11:03:02.615Z,97923.38
2023-02-16T11:04:05.150Z,97921.59
2023-02-16T11:05:26.559Z,97917.63
2023-02-16T11:06:29.396Z,97920.13
2023-02-16T11:07:31.999Z,97912.78
2023-02-16T11:08:47.722Z,97911.91
2023-02-16T11:09:54.216Z,97908.63
2023-02-16T11:10:56.066Z,97912.63
2023-02-16T11:11:58.425Z,97906.88
2023-02-16T11:13:00.350Z,97906.34
2023-02-16T11:14:09.093Z,97901.91
2023-02-16T11:15:14.292Z,97901.97
2023-02-16T11:16:20.838Z,97887.41
2023-02-16T11:17:24.234Z,97890.13
2023-02-16T11:18:32.019Z,97896.09
2023-02-16T11:19:34.763Z,97888.53
2023-02-16T11:20:37.112Z,97892.31
2023-02-16T11:21:49.340Z,97892.69
2023-02-16T11:22:51.917Z,97898.75
2023-02-16T11:24:02.412Z,97888.84
2023-02-16T11:25:33.554Z,97882.34
2023-02-16T11:26:35.441Z,97889.28
2023-02-16T11:27:37.410Z,97882.69
2023-02-16T11:28:40.614Z,97883.50
2023-02-16T11:29:42.564Z,97882.50
2023-02-16T11:30:44.560Z,97876.56
2023-02-16T11:31:46.957Z,97878.06
2023-02-16T11:32:49.776Z,97872.72
2023-02-16T11:33:57.568Z,97873.22
2023-02-16T11:34:59.411Z,97872.50
2023-02-16T11:36:05.489Z,97874.56
2023-02-16T11:37:07.330Z,97876.47
2023-02-16T11:38:24.026Z,97869.31
2023-02-16T11:39:27.335Z,97864.06
2023-02-16T11:40:31.135Z,97864.75
2023-02-16T11:41:34.235Z,97864.22
2023-02-16T11:42:36.332Z,97861.38
2023-02-16T11:43:39.071Z,97865.28
2023-02-16T11:44:44.843Z,97859.03
2023-02-16T11:45:57.210Z,97857.59
2023-02-16T11:47:05.889Z,97856.91
2023-02-16T11:48:12.642Z,97857.72
2023-02-16T11:49:30.337Z,97853.75
2023-02-16T11:50:33.839Z,97851.31
2023-02-16T11:51:36.650Z,97850.41
2023-02-16T11:52:38.569Z,97852.91
2023-02-16T11:53:42.560Z,97843.81
2023-02-16T11:54:50.641Z,97848.47
2023-02-16T11:56:09.202Z,97847.34
2023-02-16T11:57:15.664Z,97840.47
2023-02-16T11:58:19.829Z,97841.78
2023-02-16T11:59:22.146Z,97839.31
2023-02-16T12:00:24.760Z,97844.78
2023-02-16T12:01:47.339Z,97847.06
2023-02-16T12:03:08.268Z,97843.78
2023-02-16T12:04:23.943Z,97848.06
2023-02-16T12:05:26.417Z,97843.28
2023-02-16T12:06:43.576Z,97839.25
2023-02-16T12:07:51.498Z,97833.00
2023-02-16T12:08:56.372Z,97835.19
2023-02-16T12:09:58.149Z,97835.13
2023-02-16T12:11:32.556Z,97833.34
2023-02-16T12:12:49.511Z,97829.25
2023-02-16T12:14:08.640Z,97827.34
2023-02-16T12:15:21.488Z,97829.00
2023-02-16T12:16:37.441Z,97824.59
2023-02-16T12:17:55.631Z,97820.97
2023-02-16T12:18:57.555Z,97819.53
2023-02-16T12:20:28.742Z,97813.88
2023-02-16T12:21:41.444Z,97810.22
2023-02-16T12:22:47.195Z,97814.44
2023-02-16T12:23:48.999Z,97815.03
2023-02-16T12:24:50.816Z,97817.47
2023-02-16T12:25:52.726Z,97816.66
2023-02-16T12:27:17.730Z,97812.47
2023-02-16T12:28:38.321Z,97806.63
2023-02-16T12:29:50.218Z,97804.81
2023-02-16T12:30:53.043Z,97797.72
2023-02-16T12:32:13.485Z,97801.50
2023-02-16T12:33:26.414Z,97796.69
2023-02-16T12:34:43.403Z,97802.72
2023-02-16T12:35:45.186Z,97798.09
2023-02-16T12:36:47.380Z,97793.88
2023-02-16T12:38:15.575Z,97794.66
2023-02-16T12:39:20.204Z,97788.81
2023-02-16T12:40:38.045Z,97797.91
2023-02-16T12:41:58.347Z,97796.28
2023-02-16T12:43:25.805Z,97790.66
2023-02-16T12:44:39.892Z,97793.28
2023-02-16T12:45:44.237Z,97790.47
2023-02-16T12:46:47.642Z,97787.25
2023-02-16T12:47:55.936Z,97784.22
2023-02-16T12:49:01.465Z,97782.63
2023-02-16T12:50:27.987Z,97789.09
2023-02-16T12:51:43.775Z,97779.63
2023-02-16T12:52:57.235Z,97775.19
2023-02-16T12:54:10.324Z,97774.38